Time;durP1;ratioP1;P1;durP2;ratioP2;P2;SDS_P1;SDS_P2;PMS_P1;PMS_P2;Temp;Humidity;BMP_temperature;BMP_pressure;BME280_temperature;BME280_humidity;BME280_pressure;Samples;Min_cycle;Max_cycle;Signal;HPM_P1;HPM_P2
2022/09/01 00:00:40;;;;;;;6.50;1.30;;;15.90;99.90;;;;;;4990307;28;20435;-62
2022/09/01 00:03:09;;;;;;;5.20;1.00;;;15.90;99.90;;;;;;4983793;28;20398;-61
2022/09/01 00:05:35;;;;;;;5.05;0.77;;;15.90;99.90;;;;;;4992111;28;20085;-62
2022/09/01 00:08:02;;;;;;;5.80;1.00;;;15.90;99.90;;;;;;4988821;28;20145;-61
2022/09/01 00:10:28;;;;;;;4.95;1.30;;;15.90;99.90;;;;;;4991418;28;20033;-61
2022/09/01 00:12:54;;;;;;;9.07;1.70;;;15.90;99.90;;;;;;4988159;28;20038;-61
2022/09/01 00:15:20;;;;;;;4.18;1.00;;;15.90;99.90;;;;;;4990968;28;20062;-61
2022/09/01 00:17:46;;;;;;;7.63;1.50;;;15.90;99.90;;;;;;4988348;28;20080;-60
2022/09/01 00:20:12;;;;;;;7.53;1.17;;;15.90;99.90;;;;;;4990036;28;20027;-60
2022/09/01 00:22:37;;;;;;;5.78;1.30;;;15.90;99.90;;;;;;4983829;28;20030;-60
2022/09/01 00:25:05;;;;;;;7.25;1.90;;;15.80;99.90;;;;;;4990012;28;20038;-60
2022/09/01 00:27:31;;;;;;;5.15;1.00;;;15.80;99.90;;;;;;4982528;28;20038;-59
2022/09/01 00:29:57;;;;;;;6.00;1.05;;;15.70;99.90;;;;;;4988839;28;20037;-61
2022/09/01 00:32:24;;;;;;;8.77;1.92;;;15.70;99.90;;;;;;4990823;28;20138;-61
2022/09/01 00:34:49;;;;;;;7.28;1.23;;;15.70;99.90;;;;;;4989219;28;20037;-61
2022/09/01 00:37:15;;;;;;;9.50;1.15;;;15.60;99.90;;;;;;4988926;28;20038;-60
2022/09/01 00:39:41;;;;;;;6.93;1.05;;;15.60;99.90;;;;;;4990759;28;20034;-61
2022/09/01 00:42:07;;;;;;;5.75;1.00;;;15.50;99.90;;;;;;4986109;28;20026;-60
2022/09/01 00:44:35;;;;;;;5.55;1.10;;;15.60;99.90;;;;;;4990873;28;20034;-62
2022/09/01 00:47:00;;;;;;;11.70;1.80;;;15.60;99.90;;;;;;4979877;28;20125;-61
2022/09/01 00:49:37;;;;;;;3.53;1.63;;;15.60;99.90;;;;;;4986763;28;20185;-61
2022/09/01 00:52:30;;;;;;;8.75;1.40;;;15.60;99.90;;;;;;4979686;28;20034;-60
2022/09/01 00:55:01;;;;;;;5.28;1.30;;;15.50;99.90;;;;;;4980659;28;20039;-60
2022/09/01 00:57:27;;;;;;;3.63;0.90;;;15.60;99.90;;;;;;4988679;28;20037;-59
2022/09/01 01:00:00;;;;;;;9.55;1.60;;;15.70;99.90;;;;;;4988700;28;20045;-60
2022/09/01 01:02:26;;;;;;;5.72;1.73;;;15.60;99.90;;;;;;4985202;28;20030;-61
2022/09/01 01:04:54;;;;;;;9.25;1.20;;;15.60;99.90;;;;;;4988286;28;20049;-60
2022/09/01 01:07:21;;;;;;;5.85;0.90;;;15.60;99.90;;;;;;4983337;28;20076;-61
2022/09/01 01:09:48;;;;;;;9.82;1.60;;;15.70;99.90;;;;;;4988989;28;20038;-60
2022/09/01 01:12:17;;;;;;;5.25;1.10;;;15.80;99.90;;;;;;4989240;28;20022;-61
2022/09/01 01:14:49;;;;;;;10.57;1.40;;;15.90;99.90;;;;;;4985127;28;20120;-61
2022/09/01 01:17:16;;;;;;;7.50;1.58;;;15.90;99.90;;;;;;4989304;28;20030;-61
2022/09/01 01:23:02;;;;;;;6.95;1.10;;;15.80;99.90;;;;;;4981291;28;20064;-60
2022/09/01 01:25:35;;;;;;;7.30;1.73;;;15.90;99.90;;;;;;4985686;28;20041;-61
2022/09/01 01:28:08;;;;;;;7.55;1.50;;;15.90;99.90;;;;;;4986734;28;20140;-62
2022/09/01 01:30:35;;;;;;;9.40;1.40;;;15.90;99.90;;;;;;4985858;28;20033;-61
2022/09/01 01:33:02;;;;;;;8.15;1.40;;;15.90;99.90;;;;;;4980243;28;20090;-61
2022/09/01 01:35:29;;;;;;;8.63;1.58;;;15.90;99.90;;;;;;4985067;28;20076;-61
2022/09/01 01:37:55;;;;;;;9.30;1.55;;;15.90;99.90;;;;;;4986714;28;20037;-61
2022/09/01 01:40:21;;;;;;;9.20;1.58;;;16.00;99.90;;;;;;4989950;28;20038;-61
2022/09/01 01:42:50;;;;;;;3.85;0.90;;;15.90;99.90;;;;;;4980443;28;20053;-61
2022/09/01 01:45:18;;;;;;;10.65;1.60;;;15.90;99.90;;;;;;4989491;28;20084;-61
2022/09/01 01:47:52;;;;;;;12.75;1.40;;;16.00;99.90;;;;;;4983836;28;20561;-61
2022/09/01 01:50:24;;;;;;;8.68;1.73;;;16.00;99.90;;;;;;4989823;28;20502;-62
2022/09/01 01:52:49;;;;;;;9.60;1.50;;;16.00;99.90;;;;;;4987606;28;20045;-61
2022/09/01 01:55:18;;;;;;;8.70;1.60;;;16.10;99.90;;;;;;4981952;28;20423;-62
2022/09/01 01:57:48;;;;;;;9.35;2.53;;;16.10;99.90;;;;;;4986348;28;20031;-61
2022/09/01 02:00:18;;;;;;;9.68;1.50;;;16.10;99.90;;;;;;4989959;28;20033;-61
2022/09/01 02:02:51;;;;;;;7.93;1.23;;;16.10;99.90;;;;;;4983506;28;20116;-62
2022/09/01 02:05:27;;;;;;;6.40;1.00;;;16.10;99.90;;;;;;4989657;28;20117;-62
2022/09/01 02:07:57;;;;;;;6.55;1.20;;;16.10;99.90;;;;;;4984251;28;20039;-64
2022/09/01 02:10:25;;;;;;;3.42;1.17;;;16.00;99.90;;;;;;4984376;28;20387;-62
2022/09/01 02:12:51;;;;;;;9.27;2.13;;;16.00;99.90;;;;;;4987038;28;20557;-62
2022/09/01 02:15:19;;;;;;;8.98;1.92;;;16.00;99.90;;;;;;4985792;28;20030;-62
2022/09/01 02:17:45;;;;;;;12.43;2.08;;;16.00;99.90;;;;;;4987360;28;20391;-62
2022/09/01 02:20:15;;;;;;;6.15;2.40;;;16.00;99.90;;;;;;4989028;28;20040;-62
2022/09/01 02:22:42;;;;;;;5.60;1.70;;;16.00;99.90;;;;;;4981934;28;20073;-62
2022/09/01 02:25:09;;;;;;;6.45;1.98;;;16.00;99.90;;;;;;4989670;28;20089;-61
2022/09/01 02:27:38;;;;;;;4.30;1.23;;;16.00;99.90;;;;;;4988157;28;20042;-60
2022/09/01 02:30:09;;;;;;;11.82;1.65;;;16.10;99.90;;;;;;4978973;28;20041;-60
2022/09/01 02:32:36;;;;;;;10.13;1.67;;;16.10;99.90;;;;;;4986443;28;20462;-60
2022/09/01 02:35:06;;;;;;;7.53;1.05;;;16.10;99.90;;;;;;4984215;28;20023;-60
2022/09/01 02:37:32;;;;;;;8.27;1.30;;;16.10;99.90;;;;;;4988622;28;20085;-61
2022/09/01 02:39:58;;;;;;;9.77;1.45;;;16.10;99.90;;;;;;4986637;28;20032;-60
2022/09/01 02:42:28;;;;;;;13.13;1.70;;;16.10;99.90;;;;;;4978903;28;20026;-60
2022/09/01 02:44:54;;;;;;;10.85;2.35;;;16.10;99.90;;;;;;4974963;28;20041;-61
2022/09/01 02:47:22;;;;;;;19.20;1.95;;;16.10;99.90;;;;;;4982615;28;20093;-61
2022/09/01 02:49:49;;;;;;;6.03;1.50;;;16.00;99.90;;;;;;4984109;28;20014;-60
2022/09/01 02:52:16;;;;;;;9.02;2.25;;;16.00;99.90;;;;;;4988399;28;20058;-61
2022/09/01 02:54:44;;;;;;;4.70;1.30;;;15.90;99.90;;;;;;4988931;28;20034;-61
2022/09/01 02:57:11;;;;;;;8.77;1.92;;;15.90;99.90;;;;;;4988738;28;20076;-61
2022/09/01 02:59:37;;;;;;;11.88;1.42;;;15.90;99.90;;;;;;4976957;28;20077;-61
2022/09/01 03:02:05;;;;;;;6.00;1.42;;;15.80;99.90;;;;;;4982653;28;20593;-61
2022/09/01 03:04:33;;;;;;;10.52;1.80;;;15.90;99.90;;;;;;4983997;28;20490;-61
2022/09/01 03:07:00;;;;;;;7.35;1.27;;;15.90;99.90;;;;;;4987523;28;20048;-61
2022/09/01 03:09:26;;;;;;;11.60;1.60;;;15.90;99.90;;;;;;4978860;28;20085;-61
2022/09/01 03:11:53;;;;;;;9.13;1.70;;;15.90;99.90;;;;;;4987211;28;20095;-61
2022/09/01 03:14:20;;;;;;;8.30;1.58;;;15.90;99.90;;;;;;4989201;28;20034;-60
2022/09/01 03:16:46;;;;;;;9.60;1.60;;;15.90;99.90;;;;;;4982224;28;20046;-59
2022/09/01 03:19:13;;;;;;;10.52;1.50;;;15.90;99.90;;;;;;4988582;28;20364;-60
2022/09/01 03:21:41;;;;;;;5.82;1.25;;;16.00;99.90;;;;;;4990780;28;20165;-60
2022/09/01 03:24:13;;;;;;;9.45;1.33;;;16.00;99.90;;;;;;4986983;28;20031;-60
2022/09/01 03:26:40;;;;;;;4.05;1.10;;;15.90;99.90;;;;;;4984571;28;20124;-61
2022/09/01 03:29:07;;;;;;;5.75;1.20;;;15.90;99.90;;;;;;4991025;28;20031;-60
2022/09/01 03:31:33;;;;;;;8.45;1.98;;;15.90;99.90;;;;;;4985106;28;20038;-61
2022/09/01 03:34:01;;;;;;;8.98;1.40;;;15.90;99.90;;;;;;4985997;28;20031;-60
2022/09/01 03:36:27;;;;;;;6.43;1.55;;;15.80;99.90;;;;;;4986415;28;20034;-61
2022/09/01 03:38:54;;;;;;;13.23;2.22;;;15.80;99.90;;;;;;4990459;28;20111;-61
2022/09/01 03:41:23;;;;;;;7.88;1.08;;;15.80;99.90;;;;;;4987718;28;20077;-60
2022/09/01 03:43:50;;;;;;;4.50;1.40;;;15.80;99.90;;;;;;4988199;28;20065;-60
2022/09/01 03:46:20;;;;;;;9.40;2.30;;;15.80;99.90;;;;;;4984706;28;20023;-60
2022/09/01 03:48:49;;;;;;;8.75;1.60;;;15.90;99.90;;;;;;4985590;28;20031;-60
2022/09/01 03:51:15;;;;;;;15.18;1.80;;;16.00;99.90;;;;;;4989889;28;20027;-60
2022/09/01 03:53:41;;;;;;;2.88;1.35;;;16.00;99.90;;;;;;4990474;28;20065;-60
2022/09/01 03:56:07;;;;;;;12.13;2.03;;;16.10;99.90;;;;;;4988251;28;20045;-60
2022/09/01 03:58:34;;;;;;;6.32;1.70;;;16.20;99.90;;;;;;4990852;28;20044;-61
2022/09/01 04:01:01;;;;;;;7.78;1.73;;;16.20;99.90;;;;;;4987851;28;20030;-60
2022/09/01 04:03:33;;;;;;;8.07;1.50;;;16.30;99.90;;;;;;4986690;28;20034;-60
2022/09/01 04:06:00;;;;;;;9.30;1.88;;;16.30;99.90;;;;;;4988002;28;20034;-61
2022/09/01 04:08:28;;;;;;;4.78;1.27;;;16.30;99.90;;;;;;4990408;28;20030;-61
2022/09/01 04:10:54;;;;;;;6.55;1.38;;;16.30;99.90;;;;;;4984386;28;20023;-59
2022/09/01 04:13:24;;;;;;;9.57;1.60;;;16.30;99.90;;;;;;4991263;28;20482;-61
2022/09/01 04:15:50;;;;;;;5.70;1.23;;;16.30;99.90;;;;;;4984408;28;20031;-59
2022/09/01 04:18:20;;;;;;;4.65;1.38;;;16.30;99.90;;;;;;4990009;28;20045;-60
2022/09/01 04:20:51;;;;;;;8.88;1.88;;;16.30;99.90;;;;;;4989752;28;20049;-60
2022/09/01 04:23:32;;;;;;;8.40;1.80;;;16.40;99.90;;;;;;4991829;28;20030;-60
2022/09/01 04:26:08;;;;;;;5.75;1.30;;;16.40;99.90;;;;;;4981815;28;20038;-60
2022/09/01 04:28:45;;;;;;;6.75;1.33;;;16.40;99.90;;;;;;4988786;28;20041;-60
2022/09/01 04:31:17;;;;;;;11.85;2.03;;;16.40;99.90;;;;;;4991087;28;20018;-60
2022/09/01 04:33:46;;;;;;;8.18;1.40;;;16.50;99.90;;;;;;4988423;28;20481;-61
2022/09/01 04:36:21;;;;;;;12.30;1.70;;;16.50;99.90;;;;;;4991106;28;20037;-61
2022/09/01 04:38:48;;;;;;;5.38;1.10;;;16.40;99.90;;;;;;4984411;28;20134;-61
2022/09/01 04:41:16;;;;;;;13.43;2.15;;;16.50;99.90;;;;;;4989699;28;20037;-61
2022/09/01 04:43:48;;;;;;;9.10;1.10;;;16.50;99.90;;;;;;4990604;28;20487;-61
2022/09/01 04:46:15;;;;;;;7.40;1.80;;;16.50;99.90;;;;;;4983432;28;20041;-61
2022/09/01 04:48:43;;;;;;;7.32;1.48;;;16.50;99.90;;;;;;4988996;28;20041;-61
2022/09/01 04:51:11;;;;;;;7.32;2.25;;;16.50;99.90;;;;;;4982994;28;20164;-61
2022/09/01 04:53:38;;;;;;;10.57;1.50;;;16.50;99.90;;;;;;4989704;28;20049;-61
2022/09/01 04:56:04;;;;;;;13.07;1.27;;;16.60;99.90;;;;;;4987035;28;20034;-61
2022/09/01 04:58:30;;;;;;;7.40;1.38;;;16.70;99.90;;;;;;4987389;28;20026;-61
2022/09/01 05:00:56;;;;;;;6.22;1.30;;;16.70;99.90;;;;;;4982174;28;20482;-60
2022/09/01 05:03:23;;;;;;;8.75;1.40;;;16.80;99.90;;;;;;4988958;28;20034;-61
2022/09/01 05:05:49;;;;;;;7.20;1.55;;;16.90;99.90;;;;;;4988277;28;20038;-61
2022/09/01 05:08:19;;;;;;;7.80;1.08;;;17.00;99.90;;;;;;4991022;28;20034;-61
2022/09/01 05:10:54;;;;;;;14.05;1.55;;;17.00;99.90;;;;;;4987490;28;20054;-60
2022/09/01 05:13:22;;;;;;;10.00;2.10;;;17.10;99.90;;;;;;4990306;28;20027;-60
2022/09/01 05:16:02;;;;;;;7.32;1.17;;;17.20;99.90;;;;;;4987298;28;20030;-61
2022/09/01 05:18:28;;;;;;;8.95;1.38;;;17.30;99.90;;;;;;4987799;28;20085;-61
2022/09/01 05:20:54;;;;;;;9.73;1.58;;;17.30;99.90;;;;;;4987907;28;20085;-60
2022/09/01 05:23:22;;;;;;;9.95;1.75;;;17.40;99.90;;;;;;4989515;28;20030;-61
2022/09/01 05:25:51;;;;;;;11.25;2.38;;;17.40;99.90;;;;;;4988209;28;20102;-60
2022/09/01 05:28:18;;;;;;;10.02;1.55;;;17.50;99.90;;;;;;4984806;28;20038;-60
2022/09/01 05:30:46;;;;;;;12.98;1.67;;;17.50;99.90;;;;;;4987936;28;20041;-61
2022/09/01 05:33:15;;;;;;;8.82;2.78;;;17.50;99.90;;;;;;4986994;28;20109;-61
2022/09/01 05:35:50;;;;;;;11.45;1.90;;;17.60;99.90;;;;;;4986694;28;20113;-62
2022/09/01 05:38:16;;;;;;;11.93;2.22;;;17.60;99.90;;;;;;4990008;28;20069;-61
2022/09/01 05:40:44;;;;;;;14.32;2.20;;;17.50;99.90;;;;;;4988920;28;20054;-60
2022/09/01 05:43:12;;;;;;;10.00;1.73;;;17.40;99.90;;;;;;4988110;28;20066;-60
2022/09/01 05:45:42;;;;;;;11.93;1.77;;;17.40;99.90;;;;;;4987214;28;20132;-61
2022/09/01 05:48:13;;;;;;;8.88;2.17;;;17.50;99.90;;;;;;4986748;28;20108;-61
2022/09/01 05:50:41;;;;;;;10.15;1.58;;;17.50;99.90;;;;;;4975152;28;20053;-61
2022/09/01 05:53:16;;;;;;;7.53;1.70;;;17.40;99.90;;;;;;4979628;28;20088;-61
2022/09/01 05:55:45;;;;;;;16.52;2.17;;;17.40;99.90;;;;;;4986719;28;20049;-62
2022/09/01 05:58:13;;;;;;;8.52;2.13;;;17.50;99.90;;;;;;4979461;28;20029;-61
2022/09/01 06:00:46;;;;;;;5.28;1.35;;;17.40;99.90;;;;;;4989275;28;20026;-61
2022/09/01 06:03:13;;;;;;;7.53;1.85;;;17.50;99.90;;;;;;4981118;28;20390;-60
2022/09/01 06:05:39;;;;;;;9.25;1.85;;;17.50;99.90;;;;;;4985083;28;20022;-60
2022/09/01 06:08:09;;;;;;;5.15;1.40;;;17.50;99.90;;;;;;4985206;28;20061;-60
2022/09/01 06:10:38;;;;;;;3.63;1.20;;;17.50;99.90;;;;;;4980357;28;20038;-62
2022/09/01 06:13:06;;;;;;;7.30;2.38;;;17.50;99.90;;;;;;4985260;28;20483;-60
2022/09/01 06:15:33;;;;;;;8.10;1.80;;;17.60;99.90;;;;;;4981281;28;20030;-60
2022/09/01 06:17:59;;;;;;;4.65;1.30;;;17.60;99.90;;;;;;4985627;28;20482;-61
2022/09/01 06:20:26;;;;;;;14.00;1.98;;;17.70;99.90;;;;;;4980522;28;20192;-60
2022/09/01 06:22:52;;;;;;;9.00;2.03;;;17.70;99.90;;;;;;4987549;28;20034;-63
2022/09/01 06:25:19;;;;;;;10.05;1.58;;;17.90;99.90;;;;;;4983417;28;20448;-60
2022/09/01 06:27:46;;;;;;;11.95;1.60;;;18.10;99.90;;;;;;4986005;28;20474;-60
2022/09/01 06:30:16;;;;;;;7.45;1.92;;;18.10;99.90;;;;;;4986566;28;20023;-60
2022/09/01 06:32:43;;;;;;;9.00;1.90;;;18.20;99.90;;;;;;4988454;28;20052;-60
2022/09/01 06:35:14;;;;;;;7.47;1.67;;;18.40;99.90;;;;;;4986896;28;20561;-61
2022/09/01 06:37:44;;;;;;;5.80;1.88;;;18.50;99.90;;;;;;4988839;28;20054;-61
2022/09/01 06:40:18;;;;;;;7.97;1.30;;;18.60;99.90;;;;;;4986439;28;20081;-60
2022/09/01 06:42:49;;;;;;;12.48;2.63;;;18.70;99.90;;;;;;4979012;28;20048;-62
2022/09/01 06:45:19;;;;;;;10.13;1.73;;;18.80;99.90;;;;;;4977585;28;20027;-62
2022/09/01 06:47:46;;;;;;;7.50;1.85;;;18.90;99.90;;;;;;4978694;28;20125;-61
2022/09/01 06:50:15;;;;;;;8.15;1.83;;;19.00;99.90;;;;;;4984418;28;20036;-61
2022/09/01 06:52:41;;;;;;;4.47;1.38;;;19.20;99.90;;;;;;4984989;28;20129;-61
2022/09/01 06:55:09;;;;;;;5.55;1.48;;;19.30;99.90;;;;;;4981907;28;20374;-62
2022/09/01 06:57:36;;;;;;;8.90;1.65;;;19.30;99.90;;;;;;4983137;28;20038;-61
2022/09/01 07:00:10;;;;;;;5.40;1.63;;;19.40;99.90;;;;;;4978307;28;20142;-62
2022/09/01 07:02:38;;;;;;;8.15;1.40;;;19.40;99.90;;;;;;4985234;28;20394;-61
2022/09/01 07:05:06;;;;;;;7.15;1.42;;;19.40;99.90;;;;;;4986415;28;20797;-61
2022/09/01 07:07:33;;;;;;;5.53;1.52;;;19.50;99.90;;;;;;4988374;28;20052;-61
2022/09/01 07:09:59;;;;;;;8.35;1.05;;;19.40;99.90;;;;;;4985719;28;21853;-62
2022/09/01 07:12:24;;;;;;;5.93;1.20;;;19.40;99.90;;;;;;4984395;28;20039;-62
2022/09/01 07:14:51;;;;;;;7.47;1.63;;;19.40;99.90;;;;;;4983695;28;20018;-61
2022/09/01 07:17:18;;;;;;;6.45;1.45;;;19.50;99.90;;;;;;4987208;28;20100;-62
2022/09/01 07:19:45;;;;;;;5.72;1.13;;;19.50;99.90;;;;;;4988121;28;20034;-63
2022/09/01 07:22:11;;;;;;;5.22;1.00;;;19.60;99.90;;;;;;4985232;28;20378;-64
2022/09/01 07:24:38;;;;;;;6.00;1.30;;;19.60;99.90;;;;;;4987495;28;20042;-64
2022/09/01 07:27:04;;;;;;;8.90;2.00;;;19.70;99.90;;;;;;4986069;28;20076;-63
2022/09/01 07:29:31;;;;;;;10.30;1.52;;;19.80;99.90;;;;;;4989972;28;20474;-64
2022/09/01 07:31:58;;;;;;;7.03;1.27;;;19.90;99.90;;;;;;4989106;28;20026;-64
2022/09/01 07:34:25;;;;;;;9.38;2.17;;;20.00;99.90;;;;;;4984708;28;20106;-65
2022/09/01 07:36:57;;;;;;;12.10;1.25;;;20.10;99.90;;;;;;4983654;28;20034;-64
2022/09/01 07:39:23;;;;;;;11.45;1.67;;;20.20;99.90;;;;;;4985888;28;20110;-64
2022/09/01 07:41:49;;;;;;;5.63;1.42;;;20.30;99.90;;;;;;4987065;28;20109;-62
2022/09/01 07:44:14;;;;;;;8.07;1.65;;;20.30;99.90;;;;;;4985276;28;20072;-63
2022/09/01 07:46:40;;;;;;;9.57;1.45;;;20.30;99.90;;;;;;4987090;28;20042;-63
2022/09/01 07:49:07;;;;;;;11.07;2.33;;;20.40;99.90;;;;;;4984257;28;20424;-64
2022/09/01 07:51:33;;;;;;;10.63;2.00;;;20.60;99.90;;;;;;4986443;28;20035;-64
2022/09/01 07:54:01;;;;;;;4.90;1.60;;;20.70;99.90;;;;;;4984418;28;20030;-63
2022/09/01 07:56:29;;;;;;;4.80;1.17;;;20.80;99.90;;;;;;4984931;28;20033;-63
2022/09/01 07:58:57;;;;;;;5.55;1.08;;;20.80;99.90;;;;;;4984077;28;20026;-64
2022/09/01 08:01:25;;;;;;;10.05;1.55;;;20.90;99.90;;;;;;4988718;28;20030;-63
2022/09/01 08:03:54;;;;;;;3.83;1.48;;;20.90;99.90;;;;;;4982545;28;20030;-64
2022/09/01 08:06:23;;;;;;;3.67;1.13;;;20.90;99.90;;;;;;4986645;28;20049;-63
2022/09/01 08:08:50;;;;;;;3.92;1.00;;;20.90;99.90;;;;;;4989117;28;20085;-63
2022/09/01 08:11:18;;;;;;;7.90;1.40;;;20.90;99.90;;;;;;4989040;28;20097;-63
2022/09/01 08:13:44;;;;;;;3.45;0.95;;;21.00;99.90;;;;;;4987667;28;20137;-63
2022/09/01 08:16:10;;;;;;;2.78;1.58;;;21.00;99.90;;;;;;4983554;28;20413;-64
2022/09/01 08:18:36;;;;;;;5.25;1.40;;;21.00;99.90;;;;;;4986994;28;20105;-63
2022/09/01 08:21:10;;;;;;;4.70;1.38;;;21.00;99.90;;;;;;4982391;28;20470;-64
2022/09/01 08:23:37;;;;;;;8.05;1.27;;;21.10;99.90;;;;;;4986761;28;20034;-64
2022/09/01 08:26:12;;;;;;;4.20;1.65;;;21.20;99.90;;;;;;4986087;28;20386;-64
2022/09/01 08:28:38;;;;;;;5.40;1.08;;;21.30;99.90;;;;;;4978958;28;20363;-62
2022/09/01 08:31:12;;;;;;;4.13;0.93;;;21.50;99.90;;;;;;4984000;28;20610;-63
2022/09/01 08:33:40;;;;;;;4.80;1.10;;;21.50;99.90;;;;;;4981948;28;20046;-63
2022/09/01 08:36:11;;;;;;;3.92;1.00;;;21.60;99.90;;;;;;4985543;28;20446;-64
2022/09/01 08:38:38;;;;;;;3.58;1.35;;;21.70;99.90;;;;;;4979028;28;20042;-63
2022/09/01 08:41:26;;;;;;;4.35;1.48;;;21.70;99.90;;;;;;4983257;28;20547;-62
2022/09/01 08:44:23;;;;;;;3.47;1.25;;;21.90;99.90;;;;;;4967889;28;20494;-63
2022/09/01 08:47:12;;;;;;;10.27;1.23;;;21.90;99.90;;;;;;4984785;23;20047;-59
2022/09/01 08:49:39;;;;;;;5.15;0.80;;;21.90;99.90;;;;;;4974198;28;20109;-59
2022/09/01 08:52:30;;;;;;;3.17;1.00;;;22.00;99.90;;;;;;4975375;28;20298;-59
2022/09/01 08:55:04;;;;;;;2.67;1.17;;;22.10;99.90;;;;;;4977440;28;20533;-59
2022/09/01 08:57:37;;;;;;;4.35;1.08;;;22.20;99.90;;;;;;4978946;28;20049;-59
2022/09/01 09:00:10;;;;;;;6.45;1.58;;;22.40;99.90;;;;;;4975650;28;20045;-60
2022/09/01 09:02:42;;;;;;;3.42;1.17;;;22.50;99.90;;;;;;4975842;28;20033;-58
2022/09/01 09:05:30;;;;;;;4.20;1.25;;;22.50;99.90;;;;;;4975463;28;20027;-59
2022/09/01 09:08:33;;;;;;;6.18;0.90;;;22.60;99.90;;;;;;4974634;28;20133;-63
2022/09/01 09:11:04;;;;;;;6.15;1.50;;;22.90;99.90;;;;;;4977224;28;20479;-59
2022/09/01 09:13:52;;;;;;;9.93;1.30;;;23.10;99.90;;;;;;4983936;28;20038;-59
2022/09/01 09:16:36;;;;;;;4.93;2.10;;;23.20;99.90;;;;;;4984659;28;20495;-59
2022/09/01 09:19:07;;;;;;;6.32;1.80;;;23.00;99.90;;;;;;4983099;28;20053;-58
2022/09/01 09:21:43;;;;;;;4.82;1.48;;;23.00;99.90;;;;;;4984871;28;20058;-59
2022/09/01 09:24:45;;;;;;;7.43;1.60;;;23.10;99.90;;;;;;4982857;28;20025;-61
2022/09/01 09:27:18;;;;;;;9.65;2.22;;;23.20;99.90;;;;;;4983902;28;20042;-59
2022/09/01 09:29:59;;;;;;;4.07;1.20;;;23.30;99.90;;;;;;4984887;28;21023;-59
2022/09/01 09:32:48;;;;;;;4.40;1.20;;;23.30;99.90;;;;;;4984524;28;20030;-59
2022/09/01 09:35:23;;;;;;;5.82;1.20;;;23.10;99.90;;;;;;4981679;28;20486;-59
2022/09/01 09:37:49;;;;;;;4.90;1.40;;;23.00;99.90;;;;;;4984017;28;20459;-58
2022/09/01 09:40:26;;;;;;;4.05;0.85;;;23.20;99.90;;;;;;4988172;28;20026;-58
2022/09/01 09:42:54;;;;;;;14.07;3.20;;;23.20;99.90;;;;;;4987031;28;20022;-59
2022/09/01 09:45:33;;;;;;;5.63;1.33;;;23.40;99.90;;;;;;4985194;28;20031;-59
2022/09/01 09:47:59;;;;;;;3.58;1.10;;;23.50;99.90;;;;;;4986722;28;20042;-59
2022/09/01 09:50:43;;;;;;;7.60;1.42;;;23.80;99.90;;;;;;4987815;28;20390;-59
2022/09/01 09:53:25;;;;;;;7.03;1.50;;;23.80;99.90;;;;;;4984332;28;20022;-60
2022/09/01 09:55:58;;;;;;;4.68;1.67;;;24.20;99.90;;;;;;4983203;28;20112;-60
2022/09/01 09:58:28;;;;;;;9.60;3.03;;;24.30;99.90;;;;;;4983349;28;20054;-59
2022/09/01 10:01:14;;;;;;;5.78;1.35;;;24.50;99.90;;;;;;4986949;28;20368;-58
2022/09/01 10:03:47;;;;;;;5.97;1.55;;;24.50;99.90;;;;;;4988588;28;20042;-59
2022/09/01 10:06:37;;;;;;;4.45;1.20;;;24.50;99.90;;;;;;4984746;28;20030;-59
2022/09/01 10:09:14;;;;;;;9.70;1.52;;;24.70;99.90;;;;;;4986938;28;20121;-60
2022/09/01 10:11:42;;;;;;;6.80;1.13;;;24.80;99.90;;;;;;4984913;28;20493;-60
2022/09/01 10:14:22;;;;;;;6.50;1.13;;;24.90;99.90;;;;;;4985502;28;20030;-59
2022/09/01 10:17:00;;;;;;;2.05;0.77;;;24.90;99.90;;;;;;4982865;28;20030;-59
2022/09/01 10:19:28;;;;;;;3.88;1.27;;;25.20;99.90;;;;;;4987692;28;20102;-59
2022/09/01 10:21:54;;;;;;;5.55;1.50;;;25.40;99.90;;;;;;4980693;28;20027;-60
2022/09/01 10:24:32;;;;;;;6.20;1.10;;;25.60;99.90;;;;;;4981031;28;20033;-60
2022/09/01 10:27:17;;;;;;;7.20;1.30;;;25.70;99.90;;;;;;4984003;28;20034;-60
2022/09/01 10:29:47;;;;;;;8.48;1.50;;;25.80;99.90;;;;;;4987799;28;20031;-60
2022/09/01 10:32:19;;;;;;;5.45;1.88;;;25.80;99.90;;;;;;4988886;28;20038;-59
2022/09/01 10:34:46;;;;;;;6.03;1.50;;;25.60;99.90;;;;;;4984352;28;20061;-59
2022/09/01 10:37:13;;;;;;;4.35;1.17;;;25.60;99.90;;;;;;4988846;28;20030;-60
2022/09/01 10:40:11;;;;;;;5.63;1.05;;;25.40;99.90;;;;;;4991145;28;20406;-58
2022/09/01 10:42:37;;;;;;;3.55;1.23;;;25.30;99.90;;;;;;4983165;28;20105;-60
2022/09/01 10:45:03;;;;;;;6.55;2.00;;;25.20;99.90;;;;;;4990628;28;20390;-59
2022/09/01 10:47:36;;;;;;;8.07;1.40;;;25.20;99.90;;;;;;4992567;28;20561;-60
2022/09/01 10:50:20;;;;;;;5.63;1.20;;;25.30;99.90;;;;;;4984141;28;20482;-60
2022/09/01 10:52:46;;;;;;;5.72;1.13;;;25.60;99.90;;;;;;4978591;28;20026;-59
2022/09/01 10:55:38;;;;;;;8.32;1.50;;;25.60;99.90;;;;;;4979534;28;20053;-59
2022/09/01 10:58:27;;;;;;;3.30;1.30;;;25.60;99.90;;;;;;4965104;28;20081;-59
2022/09/01 11:00:54;;;;;;;4.57;2.00;;;25.60;99.90;;;;;;4985815;28;20057;-59
2022/09/01 11:03:20;;;;;;;7.03;1.58;;;25.40;99.90;;;;;;4989883;28;20045;-61
2022/09/01 11:05:54;;;;;;;6.78;1.50;;;25.60;99.90;;;;;;4989549;28;20057;-59
2022/09/01 11:08:39;;;;;;;2.83;1.33;;;25.80;99.90;;;;;;4983405;28;20047;-60
2022/09/01 11:11:22;;;;;;;7.13;1.50;;;26.00;99.90;;;;;;4982776;28;20431;-60
2022/09/01 11:13:53;;;;;;;6.07;1.30;;;26.30;99.90;;;;;;4985342;28;20061;-58
2022/09/01 11:16:26;;;;;;;6.18;1.42;;;26.70;99.90;;;;;;4983656;28;20110;-59
2022/09/01 11:18:52;;;;;;;2.75;1.20;;;27.10;99.90;;;;;;4988043;28;20033;-59
2022/09/01 11:21:29;;;;;;;6.75;1.50;;;27.00;99.90;;;;;;4988346;28;20030;-60
2022/09/01 11:24:33;;;;;;;4.13;1.40;;;27.10;99.90;;;;;;4991192;28;20523;-59
2022/09/01 11:26:59;;;;;;;10.63;1.85;;;27.10;99.90;;;;;;4979670;28;20104;-59
2022/09/01 11:29:52;;;;;;;5.28;1.27;;;27.90;99.90;;;;;;4991067;28;20030;-61
2022/09/01 11:32:23;;;;;;;7.07;1.70;;;28.90;99.90;;;;;;4992810;28;20026;-61
2022/09/01 11:34:51;;;;;;;3.97;1.50;;;29.00;98.80;;;;;;4991000;28;20085;-61
2022/09/01 11:37:21;;;;;;;6.13;1.85;;;28.90;97.80;;;;;;4990812;28;20096;-59
2022/09/01 11:40:01;;;;;;;2.08;1.33;;;28.90;97.40;;;;;;4986773;28;20133;-61
2022/09/01 11:42:26;;;;;;;4.22;1.48;;;29.80;96.10;;;;;;4986817;28;20040;-60
2022/09/01 11:44:56;;;;;;;4.20;1.42;;;30.20;95.50;;;;;;4989377;28;20015;-60
2022/09/01 11:47:31;;;;;;;6.95;1.88;;;30.20;94.20;;;;;;4990017;28;20038;-60
2022/09/01 11:50:06;;;;;;;4.53;1.80;;;30.00;94.00;;;;;;4986759;28;20030;-60
2022/09/01 11:52:35;;;;;;;4.53;1.70;;;30.30;93.30;;;;;;4987487;28;20510;-60
2022/09/01 11:55:04;;;;;;;3.78;1.73;;;30.50;92.00;;;;;;4985605;28;20117;-60
2022/09/01 11:57:33;;;;;;;3.33;1.85;;;30.40;91.80;;;;;;4991189;28;20025;-61
2022/09/01 12:00:01;;;;;;;10.32;1.70;;;30.80;90.60;;;;;;4991458;28;20054;-61
2022/09/01 12:02:32;;;;;;;4.47;1.80;;;30.90;88.20;;;;;;4989958;28;20030;-62
2022/09/01 12:04:59;;;;;;;3.13;1.73;;;31.10;85.10;;;;;;4982238;28;20065;-61
2022/09/01 12:07:45;;;;;;;5.38;2.17;;;30.90;85.90;;;;;;4977904;28;20478;-60
2022/09/01 12:10:28;;;;;;;5.88;1.50;;;30.30;87.60;;;;;;4978779;28;20026;-61
2022/09/01 12:13:27;;;;;;;6.93;1.83;;;29.90;86.00;;;;;;4975289;28;20368;-62
2022/09/01 12:16:00;;;;;;;5.03;1.40;;;29.30;87.20;;;;;;4977612;28;20041;-63
2022/09/01 12:18:33;;;;;;;5.65;1.50;;;29.10;89.90;;;;;;4988408;28;20019;-67
2022/09/01 12:21:04;;;;;;;7.30;2.20;;;28.70;90.10;;;;;;4976918;28;20029;-62
2022/09/01 12:23:33;;;;;;;6.25;1.85;;;28.30;91.40;;;;;;4977823;28;20026;-64
2022/09/01 12:26:23;;;;;;;6.47;1.80;;;28.20;91.70;;;;;;4981159;28;20045;-63
2022/09/01 12:28:49;;;;;;;4.40;2.03;;;28.20;91.60;;;;;;4975301;28;20039;-60
2022/09/01 12:31:19;;;;;;;4.72;2.05;;;28.40;91.60;;;;;;4982327;28;20026;-61
2022/09/01 12:33:46;;;;;;;5.82;1.67;;;28.50;90.40;;;;;;4980795;28;20482;-61
2022/09/01 12:36:28;;;;;;;5.25;2.30;;;28.10;90.90;;;;;;4987450;28;20098;-61
2022/09/01 12:38:56;;;;;;;5.03;1.70;;;28.00;91.10;;;;;;4975746;28;20027;-61
2022/09/01 12:41:38;;;;;;;4.03;1.75;;;27.80;90.60;;;;;;4982056;28;20125;-62
2022/09/01 12:44:22;;;;;;;;;;;27.70;91.00;;;;;;4980638;28;20038;-61
2022/09/01 12:46:47;;;;;;;4.82;1.77;;;27.80;91.10;;;;;;4981865;28;19928;-60
2022/09/01 12:49:23;;;;;;;5.22;1.83;;;27.90;90.80;;;;;;4985680;28;20023;-64
2022/09/01 12:52:20;;;;;;;5.47;1.88;;;27.80;91.00;;;;;;4984919;28;20036;-62
2022/09/01 12:54:49;;;;;;;5.55;1.73;;;27.90;90.70;;;;;;4987985;28;20565;-61
2022/09/01 12:57:38;;;;;;;3.83;2.20;;;28.60;90.20;;;;;;4991062;28;20052;-64
2022/09/01 13:00:10;;;;;;;2.72;1.70;;;29.30;87.30;;;;;;4987805;28;20026;-62
2022/09/01 13:02:43;;;;;;;2.15;1.73;;;29.60;83.30;;;;;;4981163;28;20390;-61
2022/09/01 13:05:21;;;;;;;3.00;2.00;;;29.60;81.40;;;;;;4985780;28;20036;-63
2022/09/01 13:07:47;;;;;;;2.63;1.80;;;29.50;82.00;;;;;;4980907;28;20030;-60